createdAt,value
2019-04-28T00:00:53.905Z,165575.23
2019-04-28T00:03:22.771Z,165576.58
2019-04-28T00:05:51.402Z,165581.94
2019-04-28T00:08:20.796Z,165572.59
2019-04-28T00:10:53.120Z,165548.56
2019-04-28T00:13:20.918Z,165537.88
2019-04-28T00:15:49.219Z,165556.56
2019-04-28T00:18:17.668Z,165540.58
2019-04-28T00:21:05.566Z,165504.53
2019-04-28T00:23:51.724Z,165484.50
2019-04-28T00:26:42.615Z,165404.47
2019-04-28T00:29:11.211Z,165483.20
2019-04-28T00:31:41.373Z,165467.17
2019-04-28T00:34:11.467Z,165463.17
2019-04-28T00:36:43.144Z,165451.14
2019-04-28T00:39:11.947Z,165392.44
2019-04-28T00:41:42.090Z,165412.45
2019-04-28T00:44:12.028Z,165464.47
2019-04-28T00:46:42.214Z,165463.17
2019-04-28T00:49:11.893Z,165471.17
2019-04-28T00:51:41.509Z,165493.84
2019-04-28T00:54:12.135Z,165477.86
2019-04-28T00:56:41.804Z,165472.52
2019-04-28T00:59:11.797Z,165447.16
2019-04-28T01:01:51.309Z,165455.14
2019-04-28T01:04:21.961Z,165477.86
2019-04-28T01:06:51.983Z,165433.81
2019-04-28T01:09:21.976Z,165447.16
2019-04-28T01:11:51.099Z,165451.14
2019-04-28T01:14:21.328Z,165412.45
2019-04-28T01:16:57.362Z,165423.14
2019-04-28T01:19:30.144Z,165428.47
2019-04-28T01:22:12.686Z,165457.84
2019-04-28T01:24:41.699Z,165420.48
2019-04-28T01:27:45.348Z,165424.48
2019-04-28T01:30:21.144Z,165444.50
2019-04-28T01:32:56.500Z,165377.75
2019-04-28T01:35:25.059Z,165401.77
2019-04-28T01:37:53.851Z,165408.45
2019-04-28T01:40:22.436Z,165395.13
2019-04-28T01:42:51.128Z,165351.09
2019-04-28T01:45:20.587Z,165369.77
2019-04-28T01:47:50.431Z,165361.78
2019-04-28T01:50:20.516Z,165361.78
2019-04-28T01:52:49.644Z,165344.41
2019-04-28T01:55:20.279Z,165349.75
2019-04-28T01:57:49.787Z,165347.11
2019-04-28T02:00:25.304Z,165347.11
2019-04-28T02:02:50.612Z,165355.09
2019-04-28T02:05:19.719Z,165340.37
2019-04-28T02:07:50.374Z,165355.09
2019-04-28T02:10:20.202Z,165369.77
2019-04-28T02:12:50.324Z,165372.47
2019-04-28T02:15:20.205Z,165337.72
2019-04-28T02:17:49.992Z,165368.42
2019-04-28T02:20:20.432Z,165341.72
2019-04-28T02:22:54.982Z,165296.34
2019-04-28T02:25:23.515Z,165303.03
2019-04-28T02:27:51.652Z,165297.69
2019-04-28T02:30:22.630Z,165312.36
2019-04-28T02:32:51.905Z,165293.69
2019-04-28T02:35:21.490Z,165311.02
2019-04-28T02:37:50.673Z,165305.67
2019-04-28T02:40:20.719Z,165308.38
2019-04-28T02:42:51.904Z,165311.02
2019-04-28T02:45:21.805Z,165297.69
2019-04-28T02:47:52.599Z,165268.34
2019-04-28T02:50:41.126Z,165315.02
2019-04-28T02:53:15.791Z,165311.02
2019-04-28T02:55:44.287Z,165268.34
2019-04-28T02:58:13.454Z,165225.69
2019-04-28T03:01:00.387Z,165233.66
2019-04-28T03:03:12.550Z,165199.03
2019-04-28T03:05:41.369Z,165183.02
2019-04-28T03:08:11.129Z,165167.00
2019-04-28T03:10:40.972Z,165081.69
2019-04-28T03:13:13.081Z,165097.72
2019-04-28T03:15:41.669Z,165177.69
2019-04-28T03:18:11.487Z,165163.00
2019-04-28T03:20:41.900Z,165205.67
2019-04-28T03:23:12.428Z,165215.00
2019-04-28T03:26:03.135Z,165249.69
2019-04-28T03:29:04.324Z,165264.34
2019-04-28T03:32:16.469Z,165283.02
2019-04-28T03:34:43.573Z,165287.00
2019-04-28T03:37:11.497Z,165287.00
2019-04-28T03:39:40.653Z,165308.38
2019-04-28T03:42:11.449Z,165225.69
2019-04-28T03:44:41.442Z,165252.37
2019-04-28T03:47:10.742Z,165245.69
2019-04-28T03:49:40.581Z,165268.34
2019-04-28T03:52:10.725Z,165272.34
2019-04-28T03:54:40.951Z,165209.66
2019-04-28T03:57:11.442Z,165263.00
2019-04-28T03:59:41.316Z,165255.03
2019-04-28T04:02:11.310Z,165239.00
2019-04-28T04:04:41.444Z,165197.69
2019-04-28T04:07:11.052Z,165207.02
2019-04-28T04:09:51.516Z,165237.70
2019-04-28T04:12:30.734Z,165218.98
2019-04-28T04:15:04.475Z,165223.03
2019-04-28T04:17:36.821Z,165194.98
2019-04-28T04:20:06.388Z,165237.70
2019-04-28T04:22:35.279Z,165236.36
2019-04-28T04:25:04.292Z,165228.38
2019-04-28T04:27:32.938Z,165249.69
2019-04-28T04:30:01.924Z,165279.03
2019-04-28T04:32:33.866Z,165271.05
2019-04-28T04:35:00.993Z,165284.38
2019-04-28T04:37:30.822Z,165281.67
2019-04-28T04:40:01.198Z,165280.38
2019-04-28T04:42:30.636Z,165276.37
2019-04-28T04:45:00.560Z,165276.37
2019-04-28T04:47:32.477Z,165291.00
2019-04-28T04:50:00.335Z,165299.03
2019-04-28T04:52:30.443Z,165327.03
2019-04-28T04:55:01.260Z,165288.36
2019-04-28T04:57:32.365Z,165332.38
2019-04-28T05:00:01.727Z,165353.75
2019-04-28T05:02:55.955Z,165315.02
2019-04-28T05:05:33.944Z,165324.39
2019-04-28T05:08:02.156Z,165344.41
2019-04-28T05:10:30.817Z,165327.03
2019-04-28T05:13:00.207Z,165305.67
2019-04-28T05:15:30.324Z,165309.72
2019-04-28T05:18:00.199Z,165319.05
2019-04-28T05:20:30.272Z,165251.03
2019-04-28T05:23:09.620Z,165216.34
2019-04-28T05:25:40.762Z,165228.38
2019-04-28T05:28:10.431Z,165241.70
2019-04-28T05:30:42.723Z,165351.09
2019-04-28T05:33:11.861Z,165367.13
2019-04-28T05:35:40.430Z,165308.38
2019-04-28T05:38:09.946Z,165356.44
2019-04-28T05:40:39.845Z,165379.09
2019-04-28T05:43:10.597Z,165403.12
2019-04-28T05:45:39.691Z,165416.45
2019-04-28T05:48:11.141Z,165417.80
2019-04-28T05:51:01.821Z,165443.16
2019-04-28T05:53:40.362Z,165433.81
2019-04-28T05:56:21.755Z,165444.50
2019-04-28T05:58:53.555Z,165465.83
2019-04-28T06:01:42.253Z,165485.84
2019-04-28T06:04:11.244Z,165465.83
2019-04-28T06:06:42.358Z,165460.48
2019-04-28T06:09:26.464Z,165497.83
2019-04-28T06:11:54.718Z,165537.88
2019-04-28T06:14:24.749Z,165504.53
2019-04-28T06:16:53.029Z,165487.19
2019-04-28T06:19:21.163Z,165508.52
2019-04-28T06:21:49.701Z,165532.53
2019-04-28T06:24:18.023Z,165536.53
2019-04-28T06:26:46.714Z,165516.56
2019-04-28T06:29:14.839Z,165539.23
2019-04-28T06:31:43.327Z,165572.59
2019-04-28T06:34:11.616Z,165524.55
2019-04-28T06:36:40.270Z,165559.25
2019-04-28T06:39:09.013Z,165577.94
2019-04-28T06:41:37.378Z,165559.25
2019-04-28T06:44:05.592Z,165567.25
2019-04-28T06:46:33.873Z,165569.94
2019-04-28T06:49:02.420Z,165569.94
2019-04-28T06:51:30.661Z,165601.95
2019-04-28T06:53:58.802Z,165529.89
2019-04-28T06:56:26.997Z,165607.31
2019-04-28T06:58:59.311Z,165644.67
2019-04-28T07:01:25.437Z,165623.28
2019-04-28T07:03:54.039Z,165629.98
2019-04-28T07:06:22.313Z,165637.97
2019-04-28T07:08:50.548Z,165644.67
2019-04-28T07:11:19.782Z,165644.67
2019-04-28T07:13:48.023Z,165646.02
2019-04-28T07:16:16.260Z,165667.34
2019-04-28T07:18:48.920Z,165687.38
2019-04-28T07:21:42.651Z,165674.05
2019-04-28T07:24:11.334Z,165646.02
2019-04-28T07:26:39.721Z,165682.03
2019-04-28T07:29:08.306Z,165684.73
2019-04-28T07:31:36.577Z,165668.69
2019-04-28T07:34:05.100Z,165667.34
2019-04-28T07:36:33.307Z,165561.91
2019-04-28T07:39:01.837Z,165646.02
2019-04-28T07:41:30.032Z,165663.34
2019-04-28T07:43:58.333Z,165643.31
2019-04-28T07:46:26.482Z,165624.63
2019-04-28T07:48:55.014Z,165659.34
2019-04-28T07:51:25.853Z,165656.66
2019-04-28T07:54:02.214Z,165625.98
2019-04-28T07:56:28.881Z,165616.64
2019-04-28T07:58:57.076Z,165575.23
2019-04-28T08:01:25.752Z,165596.63
2019-04-28T08:03:54.136Z,165593.97
2019-04-28T08:06:22.288Z,165597.97
2019-04-28T08:08:50.461Z,165577.94
2019-04-28T08:11:18.593Z,165571.25
2019-04-28T08:13:46.864Z,165539.23
2019-04-28T08:16:15.046Z,165593.97
2019-04-28T08:18:43.748Z,165601.95
2019-04-28T08:21:11.889Z,165620.64
2019-04-28T08:23:46.972Z,165632.63
2019-04-28T08:26:10.889Z,165647.31
2019-04-28T08:28:39.664Z,165637.97
2019-04-28T08:31:09.811Z,165663.34
2019-04-28T08:33:44.220Z,165679.39
2019-04-28T08:36:12.710Z,165722.09
2019-04-28T08:38:41.640Z,165738.14
2019-04-28T08:41:10.104Z,165742.14
2019-04-28T08:43:38.600Z,165790.22
2019-04-28T08:46:06.785Z,165611.30
2019-04-28T08:48:34.962Z,165678.03
2019-04-28T08:51:03.387Z,165775.52
2019-04-28T08:53:31.908Z,165767.47
2019-04-28T08:56:00.067Z,165751.48
2019-04-28T08:58:28.238Z,165832.94
2019-04-28T09:00:57.243Z,165853.03
2019-04-28T09:03:25.538Z,165759.47
2019-04-28T09:05:54.283Z,165731.44
2019-04-28T09:08:22.520Z,165899.77
2019-04-28T09:10:50.805Z,165953.20
2019-04-28T09:13:19.040Z,165926.45
2019-04-28T09:15:47.264Z,165973.25
2019-04-28T09:18:15.449Z,165991.95
2019-04-28T09:20:43.712Z,166016.00
2019-04-28T09:23:11.977Z,165955.84
2019-04-28T09:25:40.197Z,166069.45
2019-04-28T09:28:08.571Z,166082.81
2019-04-28T09:30:36.999Z,166154.97
2019-04-28T09:33:05.161Z,166138.92
2019-04-28T09:35:33.900Z,166248.63
2019-04-28T09:38:02.075Z,166303.41
2019-04-28T09:40:30.528Z,166247.22
2019-04-28T09:43:30.371Z,166387.67
2019-04-28T09:46:23.995Z,166410.39
2019-04-28T09:48:52.381Z,166454.53
2019-04-28T09:51:20.840Z,166302.09
2019-04-28T09:53:49.290Z,166478.63
2019-04-28T09:56:17.756Z,166521.42
2019-04-28T09:58:46.431Z,166600.38
2019-04-28T10:01:14.749Z,166431.81
2019-04-28T10:03:43.556Z,166554.86
2019-04-28T10:06:12.254Z,166647.23
2019-04-28T10:08:40.460Z,166647.23
2019-04-28T10:11:09.433Z,166629.88
2019-04-28T10:13:38.140Z,166609.73
2019-04-28T10:16:20.405Z,166532.13
2019-04-28T10:18:49.196Z,166552.20
2019-04-28T10:21:19.112Z,166509.41
2019-04-28T10:23:47.516Z,166620.50
2019-04-28T10:26:17.160Z,166631.17
2019-04-28T10:28:45.436Z,166489.33
2019-04-28T10:31:13.969Z,166455.89
2019-04-28T10:33:46.375Z,166463.91
2019-04-28T10:36:15.907Z,166486.63
2019-04-28T10:38:46.211Z,166510.70
2019-04-28T10:41:35.893Z,166459.91
2019-04-28T10:44:04.172Z,166548.16
2019-04-28T10:46:32.947Z,166569.58
2019-04-28T10:49:02.255Z,166623.16
2019-04-28T10:51:30.451Z,166716.84
2019-04-28T10:53:58.879Z,166834.63
2019-04-28T10:56:27.149Z,166754.31
2019-04-28T10:58:57.862Z,166935.03
2019-04-28T11:01:26.314Z,166739.59
2019-04-28T11:03:57.848Z,166574.94
2019-04-28T11:06:26.269Z,166682.05
2019-04-28T11:09:05.376Z,166615.14
2019-04-28T11:11:33.575Z,166641.87
2019-04-28T11:14:03.344Z,166696.78
2019-04-28T11:16:35.601Z,166524.06
2019-04-28T11:19:04.934Z,166652.59
2019-04-28T11:21:33.551Z,166680.69
2019-04-28T11:24:02.031Z,166703.44
2019-04-28T11:26:30.587Z,166853.36
2019-04-28T11:28:59.281Z,166944.41
2019-04-28T11:31:27.433Z,166949.81
2019-04-28T11:34:13.923Z,167086.44
2019-04-28T11:36:42.782Z,167022.13
2019-04-28T11:39:14.499Z,166885.53
2019-04-28T11:41:43.190Z,166902.91
2019-04-28T11:44:11.745Z,166874.81
2019-04-28T11:46:40.006Z,166912.28
2019-04-28T11:49:08.291Z,166839.98
2019-04-28T11:51:36.628Z,166795.80
2019-04-28T11:54:04.850Z,166949.81
2019-04-28T11:56:41.140Z,166743.59
2019-04-28T11:59:04.250Z,166896.20
2019-04-28T12:01:33.481Z,167169.52
2019-04-28T12:04:04.009Z,167300.91
2019-04-28T12:06:32.256Z,167007.41
2019-04-28T12:09:16.611Z,167063.69
2019-04-28T12:11:47.984Z,166990.02
2019-04-28T12:14:36.108Z,167047.59
2019-04-28T12:17:22.398Z,167119.94
2019-04-28T12:19:54.042Z,166928.38
2019-04-28T12:22:22.611Z,167023.48
2019-04-28T12:24:50.860Z,167199.00
2019-04-28T12:27:19.139Z,167185.56
2019-04-28T12:29:47.360Z,167197.64
2019-04-28T12:32:15.585Z,167211.03
2019-04-28T12:34:43.716Z,167306.27
2019-04-28T12:37:12.029Z,167263.34
2019-04-28T12:39:40.174Z,167056.97
2019-04-28T12:42:08.302Z,166975.28
2019-04-28T12:44:36.936Z,167011.47
2019-04-28T12:47:05.075Z,167044.94
2019-04-28T12:49:43.562Z,167054.31
2019-04-28T12:52:13.739Z,166968.56
2019-04-28T12:54:44.613Z,166874.81
2019-04-28T12:57:12.488Z,166746.25
2019-04-28T12:59:49.271Z,166793.14
2019-04-28T13:02:52.056Z,166838.63
2019-04-28T13:05:20.794Z,166884.17
2019-04-28T13:07:48.982Z,166892.19
2019-04-28T13:10:17.129Z,166933.72
2019-04-28T13:12:45.548Z,166874.81
2019-04-28T13:15:14.004Z,166919.00
2019-04-28T13:17:42.686Z,166955.19
2019-04-28T13:20:11.377Z,166951.17
2019-04-28T13:22:40.127Z,166973.92
2019-04-28T13:25:08.791Z,167153.42
2019-04-28T13:27:36.935Z,167196.28
2019-04-28T13:30:05.962Z,167097.17
2019-04-28T13:32:34.990Z,166949.81
2019-04-28T13:35:04.405Z,166961.89
2019-04-28T13:37:32.712Z,166925.66
2019-04-28T13:40:05.254Z,166951.17
2019-04-28T13:42:33.457Z,166936.37
2019-04-28T13:45:11.376Z,167090.45
2019-04-28T13:47:40.246Z,166955.19
2019-04-28T13:50:33.213Z,166965.91
2019-04-28T13:53:01.475Z,166947.16
2019-04-28T13:56:04.565Z,167193.63
2019-04-28T13:58:51.923Z,167161.44
2019-04-28T14:01:45.535Z,167032.86
2019-04-28T14:04:36.045Z,166948.52
2019-04-28T14:07:05.846Z,166965.91
2019-04-28T14:09:34.093Z,166924.36
2019-04-28T14:12:02.250Z,166912.28
2019-04-28T14:14:30.818Z,166921.66
2019-04-28T14:16:59.644Z,166857.38
2019-04-28T14:19:28.081Z,166874.81
2019-04-28T14:21:56.251Z,166849.34
2019-04-28T14:24:24.793Z,166765.03
2019-04-28T14:26:53.790Z,166801.16
2019-04-28T14:29:22.168Z,166751.62
2019-04-28T14:31:50.634Z,166775.72
2019-04-28T14:34:19.202Z,166766.34
2019-04-28T14:36:47.473Z,166726.22
2019-04-28T14:39:16.400Z,166805.16
2019-04-28T14:41:44.736Z,166773.06
2019-04-28T14:44:13.087Z,166826.61
2019-04-28T14:46:41.615Z,166841.34
2019-04-28T14:49:09.758Z,166872.09
2019-04-28T14:51:38.026Z,166821.25
2019-04-28T14:54:06.635Z,166809.17
2019-04-28T14:56:34.996Z,166785.08
2019-04-28T14:59:04.194Z,166762.33
2019-04-28T15:02:07.622Z,166710.14
2019-04-28T15:05:10.970Z,166722.16
2019-04-28T15:07:58.917Z,166692.77
2019-04-28T15:10:33.746Z,166678.05
2019-04-28T15:13:02.591Z,166683.34
2019-04-28T15:15:30.861Z,166724.88
2019-04-28T15:17:59.753Z,166636.53
2019-04-28T15:20:27.911Z,166621.81
2019-04-28T15:22:56.635Z,166544.14
2019-04-28T15:25:25.217Z,166548.16
2019-04-28T15:27:53.393Z,166553.50
2019-04-28T15:30:22.298Z,166446.53
2019-04-28T15:32:50.472Z,166487.97
2019-04-28T15:35:18.691Z,166438.47
2019-04-28T15:37:46.858Z,166418.41
2019-04-28T15:40:15.455Z,166417.09
2019-04-28T15:42:44.694Z,166395.67
2019-04-28T15:45:13.444Z,166336.83
2019-04-28T15:47:41.953Z,166379.61
2019-04-28T15:50:10.511Z,166419.75
2019-04-28T15:52:38.852Z,166366.25
2019-04-28T15:55:09.125Z,166352.89
2019-04-28T15:57:37.268Z,166406.39
2019-04-28T16:00:08.804Z,166435.81
2019-04-28T16:02:37.217Z,166406.39
2019-04-28T16:05:05.730Z,166342.19
2019-04-28T16:07:34.587Z,166334.19
2019-04-28T16:10:03.382Z,166437.17
2019-04-28T16:12:31.608Z,166474.61
2019-04-28T16:15:00.238Z,166516.06
2019-04-28T16:17:28.748Z,166558.86
2019-04-28T16:19:56.934Z,166565.56
2019-04-28T16:22:25.554Z,166489.33
2019-04-28T16:24:53.761Z,166549.50
2019-04-28T16:27:22.251Z,166558.86
2019-04-28T16:29:50.721Z,166574.94
2019-04-28T16:32:19.002Z,166564.22
2019-04-28T16:34:47.786Z,166580.30
2019-04-28T16:37:15.983Z,166505.34
2019-04-28T16:39:44.164Z,166603.02
2019-04-28T16:42:23.574Z,166577.59
2019-04-28T16:45:03.281Z,166592.31
2019-04-28T16:47:31.795Z,166513.41
2019-04-28T16:50:00.076Z,166521.42
2019-04-28T16:52:28.638Z,166494.69
2019-04-28T16:55:16.170Z,166487.97
2019-04-28T16:57:59.693Z,166502.69
2019-04-28T17:00:56.821Z,166425.11
2019-04-28T17:03:27.242Z,166410.39
2019-04-28T17:05:55.710Z,166475.91
2019-04-28T17:08:23.852Z,166449.19
2019-04-28T17:10:52.801Z,166422.45
2019-04-28T17:13:20.938Z,166393.03
2019-04-28T17:15:49.114Z,166470.61
2019-04-28T17:18:17.480Z,166470.61
2019-04-28T17:20:46.392Z,166489.33
2019-04-28T17:23:14.660Z,166489.33
2019-04-28T17:25:42.977Z,166466.55
2019-04-28T17:28:11.404Z,166449.19
2019-04-28T17:30:39.590Z,166427.77
2019-04-28T17:33:08.172Z,166425.11
2019-04-28T17:35:37.190Z,166442.47
2019-04-28T17:38:06.638Z,166421.11
2019-04-28T17:40:36.151Z,166491.98
2019-04-28T17:43:06.763Z,166435.81
2019-04-28T17:45:35.109Z,166379.61
2019-04-28T17:48:12.784Z,166414.39
2019-04-28T17:50:41.083Z,166391.67
2019-04-28T17:53:09.690Z,166375.61
2019-04-28T17:55:38.198Z,166355.53
2019-04-28T17:58:06.360Z,166347.53
2019-04-28T18:00:47.288Z,166335.53
2019-04-28T18:03:29.297Z,166318.11
2019-04-28T18:06:17.595Z,166302.09
2019-04-28T18:08:37.991Z,166298.05
2019-04-28T18:11:06.192Z,166303.41
2019-04-28T18:13:35.338Z,166294.05
2019-04-28T18:16:32.435Z,166279.34
2019-04-28T18:19:04.255Z,166245.86
2019-04-28T18:21:32.712Z,166173.69
2019-04-28T18:24:00.908Z,166173.69
2019-04-28T18:26:29.337Z,166171.03
2019-04-28T18:28:58.364Z,166133.56
2019-04-28T18:31:43.259Z,166090.80
2019-04-28T18:34:20.807Z,166045.41
2019-04-28T18:36:58.575Z,166034.70
2019-04-28T18:39:45.475Z,166054.75
2019-04-28T18:42:26.426Z,166050.75
2019-04-28T18:44:54.820Z,166017.34
2019-04-28T18:47:23.506Z,165999.94
2019-04-28T18:49:52.367Z,165969.25
2019-04-28T18:52:20.508Z,166005.30
2019-04-28T18:54:49.346Z,165921.16
2019-04-28T18:57:17.540Z,165883.72
2019-04-28T18:59:46.068Z,165844.98
2019-04-28T19:02:42.881Z,165843.69
2019-04-28T19:05:12.772Z,165850.33
2019-04-28T19:08:15.630Z,165811.55
2019-04-28T19:10:52.896Z,165799.56
2019-04-28T19:13:24.701Z,165768.83
2019-04-28T19:16:05.065Z,165759.47
2019-04-28T19:18:36.001Z,165764.83
2019-04-28T19:21:04.179Z,165748.78
2019-04-28T19:23:32.471Z,165791.50
2019-04-28T19:26:00.892Z,165756.83
2019-04-28T19:28:29.029Z,165743.44
2019-04-28T19:30:57.638Z,165724.75
2019-04-28T19:33:25.969Z,165800.91
2019-04-28T19:35:54.455Z,165814.25
2019-04-28T19:38:23.699Z,165822.25
2019-04-28T19:40:52.088Z,165831.59
2019-04-28T19:43:21.076Z,165800.91
2019-04-28T19:45:51.273Z,165804.91
2019-04-28T19:48:19.456Z,165711.41
2019-04-28T19:50:48.105Z,165700.72
2019-04-28T19:53:16.373Z,165706.06
2019-04-28T19:55:51.986Z,165700.72
2019-04-28T19:58:34.662Z,165668.69
2019-04-28T20:01:18.202Z,165658.00
2019-04-28T20:03:46.951Z,165646.02
2019-04-28T20:06:15.115Z,165627.33
2019-04-28T20:08:43.381Z,165577.94
2019-04-28T20:11:12.080Z,165564.59
2019-04-28T20:13:40.617Z,165583.28
2019-04-28T20:16:08.976Z,165563.25
2019-04-28T20:18:37.228Z,165517.86
2019-04-28T20:21:05.603Z,165527.19
2019-04-28T20:23:33.738Z,165545.92
2019-04-28T20:26:02.105Z,165559.25
2019-04-28T20:28:30.253Z,165597.97
2019-04-28T20:30:58.998Z,165583.28
2019-04-28T20:33:27.485Z,165533.87
2019-04-28T20:36:00.008Z,165512.50
2019-04-28T20:38:32.168Z,165527.19
2019-04-28T20:41:26.027Z,165519.20
2019-04-28T20:43:55.148Z,165504.53
2019-04-28T20:46:23.408Z,165481.84
2019-04-28T20:48:51.951Z,165476.50
2019-04-28T20:51:20.380Z,165489.84
2019-04-28T20:53:48.670Z,165457.84
2019-04-28T20:56:16.948Z,165467.17
2019-04-28T20:58:45.220Z,165467.17
2019-04-28T21:01:13.385Z,165447.16
2019-04-28T21:03:42.181Z,165429.83
2019-04-28T21:06:10.352Z,165433.81
2019-04-28T21:08:38.776Z,165395.13
2019-04-28T21:11:06.956Z,165372.47
2019-04-28T21:13:35.669Z,165364.44
2019-04-28T21:16:03.956Z,165367.13
2019-04-28T21:18:32.133Z,165364.44
2019-04-28T21:21:00.329Z,165341.72
2019-04-28T21:23:28.847Z,165364.44
2019-04-28T21:25:56.980Z,165351.09
2019-04-28T21:28:25.197Z,165347.11
2019-04-28T21:30:53.503Z,165356.44
2019-04-28T21:33:21.955Z,165320.34
2019-04-28T21:35:50.346Z,165281.67
2019-04-28T21:38:18.764Z,165291.00
2019-04-28T21:40:47.668Z,165279.03
2019-04-28T21:43:35.982Z,165248.33
2019-04-28T21:46:16.158Z,165236.36
2019-04-28T21:48:58.615Z,165252.37
2019-04-28T21:51:27.237Z,165245.69
2019-04-28T21:53:56.025Z,165237.70
2019-04-28T21:56:24.711Z,165201.67
2019-04-28T21:58:52.834Z,165180.33
2019-04-28T22:01:22.770Z,165127.05
2019-04-28T22:03:50.964Z,165131.03
2019-04-28T22:06:19.815Z,165089.67
2019-04-28T22:08:47.992Z,165129.69
2019-04-28T22:11:16.214Z,165139.02
2019-04-28T22:13:44.910Z,165117.72
2019-04-28T22:16:13.563Z,165081.69
2019-04-28T22:18:41.737Z,165072.37
2019-04-28T22:21:09.886Z,165055.06
2019-04-28T22:23:51.893Z,165073.72
2019-04-28T22:26:38.248Z,165068.38
2019-04-28T22:29:06.413Z,165075.02
2019-04-28T22:31:34.959Z,165037.70
2019-04-28T22:34:03.389Z,165091.02
2019-04-28T22:36:32.100Z,165035.06
2019-04-28T22:39:00.589Z,165015.06
2019-04-28T22:41:29.553Z,165053.72
2019-04-28T22:43:57.768Z,165036.36
2019-04-28T22:46:26.176Z,164921.75
2019-04-28T22:48:56.639Z,164911.14
2019-04-28T22:51:24.792Z,164999.05
2019-04-28T22:53:53.252Z,164949.73
2019-04-28T22:56:35.102Z,164932.44
2019-04-28T22:59:09.610Z,164908.44
2019-04-28T23:01:41.025Z,164932.44
2019-04-28T23:04:25.775Z,164887.16
2019-04-28T23:06:54.023Z,164873.80
2019-04-28T23:09:22.775Z,164929.78
2019-04-28T23:11:51.241Z,164883.13
2019-04-28T23:14:19.498Z,164831.17
2019-04-28T23:16:48.113Z,164857.84
2019-04-28T23:19:18.141Z,164879.13
2019-04-28T23:22:04.879Z,164815.17
2019-04-28T23:24:33.757Z,164875.14
2019-04-28T23:27:02.349Z,164904.45
2019-04-28T23:29:30.795Z,164839.14
2019-04-28T23:32:00.428Z,164828.53
2019-04-28T23:34:28.925Z,164921.75
2019-04-28T23:36:57.413Z,164929.78
2019-04-28T23:39:25.747Z,164937.77
2019-04-28T23:41:59.708Z,164948.44
2019-04-28T23:44:27.916Z,164913.78
2019-04-28T23:46:57.725Z,164863.19
2019-04-28T23:49:28.175Z,164807.20
2019-04-28T23:52:09.417Z,164789.91
2019-04-28T23:54:39.619Z,164780.58
2019-04-28T23:57:07.796Z,164773.91
2019-04-28T23:59:36.128Z,164755.27
